createdAt,value
2018-06-20T00:01:18.790Z,14.30
2018-06-20T00:03:21.274Z,14.30
2018-06-20T00:05:24.035Z,14.30
2018-06-20T00:07:26.626Z,14.20
2018-06-20T00:09:28.987Z,14.20
2018-06-20T00:11:31.527Z,14.10
2018-06-20T00:13:34.083Z,14.10
2018-06-20T00:15:36.749Z,14.10
2018-06-20T00:17:39.128Z,14.00
2018-06-20T00:19:41.610Z,14.00
2018-06-20T00:21:44.067Z,14.10
2018-06-20T00:23:46.656Z,14.10
2018-06-20T00:25:49.637Z,14.10
2018-06-20T00:27:52.277Z,14.10
2018-06-20T00:29:54.810Z,14.10
2018-06-20T00:31:58.086Z,14.10
2018-06-20T00:34:01.581Z,14.20
2018-06-20T00:36:04.379Z,14.10
2018-06-20T00:38:06.923Z,14.00
2018-06-20T00:40:09.342Z,14.10
2018-06-20T00:42:11.736Z,14.10
2018-06-20T00:44:14.081Z,14.10
2018-06-20T00:46:16.581Z,14.10
2018-06-20T00:48:18.991Z,14.20
2018-06-20T00:50:21.719Z,14.40
2018-06-20T00:52:24.054Z,14.60
2018-06-20T00:54:26.724Z,14.70
2018-06-20T00:56:29.865Z,14.60
2018-06-20T00:58:32.210Z,14.60
2018-06-20T01:00:34.565Z,14.40
2018-06-20T01:02:36.911Z,14.30
2018-06-20T01:04:39.205Z,14.30
2018-06-20T01:06:42.611Z,14.40
2018-06-20T01:08:48.936Z,14.40
2018-06-20T01:10:51.278Z,14.30
2018-06-20T01:12:53.589Z,14.30
2018-06-20T01:14:56.040Z,14.30
2018-06-20T01:16:58.449Z,14.30
2018-06-20T01:19:00.859Z,14.20
2018-06-20T01:21:03.471Z,14.30
2018-06-20T01:23:07.087Z,14.40
2018-06-20T01:25:10.753Z,14.40
2018-06-20T01:27:14.273Z,14.30
2018-06-20T01:29:16.724Z,14.20
2018-06-20T01:31:19.092Z,14.10
2018-06-20T01:33:21.795Z,14.00
2018-06-20T01:35:24.086Z,14.00
2018-06-20T01:37:26.411Z,14.00
2018-06-20T01:39:28.800Z,13.90
2018-06-20T01:41:31.263Z,13.90
2018-06-20T01:43:33.551Z,14.00
2018-06-20T01:45:36.793Z,14.10
2018-06-20T01:47:39.350Z,14.00
2018-06-20T01:49:41.753Z,14.00
2018-06-20T01:51:44.178Z,13.90
2018-06-20T01:53:46.586Z,13.90
2018-06-20T01:55:48.958Z,13.90
2018-06-20T01:57:51.578Z,14.10
2018-06-20T01:59:54.026Z,14.20
2018-06-20T02:01:56.344Z,14.40
2018-06-20T02:06:01.176Z,14.40
2018-06-20T02:08:03.825Z,14.40
2018-06-20T02:10:06.401Z,14.30
2018-06-20T02:12:08.828Z,14.40
2018-06-20T02:14:11.279Z,14.70
2018-06-20T02:16:13.655Z,14.90
2018-06-20T02:18:16.048Z,15.10
2018-06-20T02:20:18.740Z,15.10
2018-06-20T02:22:21.312Z,15.10
2018-06-20T02:24:24.073Z,15.10
2018-06-20T02:26:26.411Z,15.00
2018-06-20T02:28:28.824Z,14.90
2018-06-20T02:30:31.154Z,14.80
2018-06-20T02:32:33.823Z,14.60
2018-06-20T02:34:36.287Z,14.50
2018-06-20T02:36:39.115Z,14.30
2018-06-20T02:38:41.424Z,14.00
2018-06-20T02:40:43.890Z,13.90
2018-06-20T02:42:46.302Z,14.00
2018-06-20T02:44:48.680Z,14.00
2018-06-20T02:46:51.355Z,13.90
2018-06-20T02:48:53.780Z,13.90
2018-06-20T02:50:56.198Z,13.90
2018-06-20T02:52:58.895Z,13.90
2018-06-20T02:57:03.808Z,14.00
2018-06-20T02:59:06.402Z,14.00
2018-06-20T03:01:09.069Z,14.10
2018-06-20T03:03:11.459Z,14.20
2018-06-20T03:05:13.907Z,14.10
2018-06-20T03:07:16.482Z,14.10
2018-06-20T03:09:24.396Z,14.10
2018-06-20T03:11:26.810Z,14.10
2018-06-20T03:13:29.218Z,14.20
2018-06-20T03:15:31.574Z,14.00
2018-06-20T03:17:33.952Z,14.00
2018-06-20T03:19:36.662Z,13.90
2018-06-20T03:21:39.157Z,14.00
2018-06-20T03:23:41.600Z,14.10
2018-06-20T03:25:44.080Z,14.00
2018-06-20T03:27:46.515Z,14.00
2018-06-20T03:29:51.175Z,14.10
2018-06-20T03:31:53.594Z,14.10
2018-06-20T03:33:55.865Z,14.10
2018-06-20T03:35:58.162Z,14.20
2018-06-20T03:38:00.724Z,14.20
2018-06-20T03:40:03.200Z,14.20
2018-06-20T03:42:05.640Z,14.10
2018-06-20T03:44:08.830Z,14.10
2018-06-20T03:46:11.211Z,14.10
2018-06-20T03:48:13.582Z,14.20
2018-06-20T03:50:15.925Z,14.20
2018-06-20T03:52:18.295Z,14.20
2018-06-20T03:54:20.858Z,14.20
2018-06-20T03:56:23.901Z,14.10
2018-06-20T03:58:26.450Z,14.10
2018-06-20T04:00:28.845Z,14.20
2018-06-20T04:02:31.274Z,14.20
2018-06-20T04:04:33.738Z,14.30
2018-06-20T04:06:36.185Z,14.40
2018-06-20T04:08:38.578Z,14.50
2018-06-20T04:10:41.080Z,14.40
2018-06-20T04:12:43.801Z,14.40
2018-06-20T04:14:46.244Z,14.40
2018-06-20T04:16:48.652Z,14.40
2018-06-20T04:20:53.396Z,14.40
2018-06-20T04:22:56.704Z,14.50
2018-06-20T04:24:59.123Z,14.50
2018-06-20T04:27:02.485Z,14.50
2018-06-20T04:29:04.950Z,14.50
2018-06-20T04:31:08.366Z,14.70
2018-06-20T04:33:10.786Z,14.60
2018-06-20T04:35:13.147Z,14.70
2018-06-20T04:37:15.554Z,14.70
2018-06-20T04:39:18.135Z,14.80
2018-06-20T04:41:20.554Z,14.80
2018-06-20T04:43:23.542Z,14.80
2018-06-20T04:45:25.879Z,14.80
2018-06-20T04:47:28.411Z,14.80
2018-06-20T04:49:30.786Z,14.90
2018-06-20T04:51:33.248Z,14.90
2018-06-20T04:53:35.643Z,15.00
2018-06-20T04:57:40.510Z,15.10
2018-06-20T04:59:42.951Z,15.10
2018-06-20T05:01:45.425Z,15.10
2018-06-20T05:03:47.813Z,15.10
2018-06-20T05:05:50.978Z,15.20
2018-06-20T05:07:53.473Z,15.30
2018-06-20T05:09:55.858Z,15.40
2018-06-20T05:11:58.231Z,15.60
2018-06-20T05:14:00.922Z,15.60
2018-06-20T05:16:03.882Z,15.70
2018-06-20T05:18:06.363Z,15.70
2018-06-20T05:20:08.871Z,15.70
2018-06-20T05:22:11.300Z,15.70
2018-06-20T05:24:13.709Z,15.80
2018-06-20T05:26:16.105Z,15.90
2018-06-20T05:28:19.259Z,16.00
2018-06-20T05:30:21.644Z,16.10
2018-06-20T05:32:24.785Z,16.20
2018-06-20T05:34:27.517Z,16.20
2018-06-20T05:36:30.107Z,16.30
2018-06-20T05:38:32.605Z,16.40
2018-06-20T05:40:34.938Z,16.50
2018-06-20T05:42:37.354Z,16.60
2018-06-20T05:44:40.917Z,16.60
2018-06-20T05:46:44.088Z,16.70
2018-06-20T05:48:47.212Z,16.80
2018-06-20T05:50:50.802Z,16.90
2018-06-20T05:52:53.150Z,17.00
2018-06-20T05:54:55.551Z,17.10
2018-06-20T05:56:57.951Z,17.20
2018-06-20T05:59:00.373Z,17.20
2018-06-20T06:01:02.780Z,17.30
2018-06-20T06:05:07.765Z,17.40
2018-06-20T06:07:10.248Z,17.50
2018-06-20T06:09:12.777Z,17.60
2018-06-20T06:11:15.159Z,17.80
2018-06-20T06:13:17.546Z,17.90
2018-06-20T06:15:19.995Z,18.00
2018-06-20T06:17:22.383Z,18.10
2018-06-20T06:19:25.056Z,18.20
2018-06-20T06:21:27.501Z,18.30
2018-06-20T06:23:30.247Z,18.40
2018-06-20T06:25:32.868Z,18.50
2018-06-20T06:27:35.279Z,18.60
2018-06-20T06:29:38.787Z,18.60
2018-06-20T06:31:41.291Z,18.60
2018-06-20T06:33:43.747Z,18.60
2018-06-20T06:35:46.413Z,18.70
2018-06-20T06:37:48.913Z,18.80
2018-06-20T06:39:51.839Z,18.90
2018-06-20T06:41:54.217Z,18.90
2018-06-20T06:43:59.280Z,19.00
2018-06-20T06:46:01.637Z,19.10
2018-06-20T06:48:04.163Z,19.10
2018-06-20T06:50:08.624Z,19.30
2018-06-20T06:52:10.955Z,19.20
2018-06-20T06:54:13.325Z,19.20
2018-06-20T06:56:15.942Z,19.10
2018-06-20T06:58:20.252Z,19.20
2018-06-20T07:00:22.916Z,19.40
2018-06-20T07:02:25.611Z,19.30
2018-06-20T07:04:28.356Z,19.40
2018-06-20T07:06:30.824Z,19.50
2018-06-20T07:08:34.482Z,19.50
2018-06-20T07:10:37.133Z,19.70
2018-06-20T07:13:08.198Z,19.90
2018-06-20T07:15:10.589Z,19.70
2018-06-20T07:17:14.627Z,19.60
2018-06-20T07:19:17.844Z,19.60
2018-06-20T07:21:21.351Z,19.80
2018-06-20T07:23:25.579Z,19.90
2018-06-20T07:25:30.032Z,19.80
2018-06-20T07:27:32.590Z,20.00
2018-06-20T07:29:35.350Z,20.10
2018-06-20T07:31:37.786Z,20.00
2018-06-20T07:33:43.980Z,20.20
2018-06-20T07:35:46.543Z,20.30
2018-06-20T07:37:50.892Z,20.30
2018-06-20T07:39:53.563Z,20.40
2018-06-20T07:41:57.642Z,20.60
2018-06-20T07:44:02.799Z,20.70
2018-06-20T07:46:05.324Z,20.70
2018-06-20T07:48:09.179Z,20.50
2018-06-20T07:50:11.645Z,20.50
2018-06-20T07:52:14.070Z,20.60
2018-06-20T07:54:18.110Z,20.70
2018-06-20T07:56:23.051Z,20.90
2018-06-20T07:58:31.139Z,21.10
2018-06-20T08:00:39.296Z,21.20
2018-06-20T08:02:59.288Z,21.10
2018-06-20T08:05:07.475Z,21.10
2018-06-20T08:07:15.739Z,21.20
2018-06-20T08:09:23.938Z,21.20
2018-06-20T08:11:32.240Z,21.40
2018-06-20T08:15:49.101Z,21.60
2018-06-20T08:17:57.193Z,21.70
2018-06-20T08:20:01.628Z,21.70
2018-06-20T08:22:04.902Z,21.40
2018-06-20T08:24:09.667Z,21.70
2018-06-20T08:26:12.475Z,21.90
2018-06-20T08:28:16.506Z,21.80
2018-06-20T08:30:19.195Z,21.70
2018-06-20T08:32:22.430Z,21.30
2018-06-20T08:34:29.458Z,21.30
2018-06-20T08:36:32.585Z,21.40
2018-06-20T08:38:35.023Z,21.70
2018-06-20T08:40:39.730Z,21.70
2018-06-20T08:42:44.452Z,21.70
2018-06-20T08:44:49.811Z,21.60
2018-06-20T08:46:57.908Z,21.60
2018-06-20T08:49:02.291Z,21.60
2018-06-20T08:51:04.961Z,21.80
2018-06-20T08:53:11.255Z,21.90
2018-06-20T08:55:13.742Z,22.00
2018-06-20T08:57:19.875Z,22.10
2018-06-20T08:59:37.192Z,22.10
2018-06-20T09:01:47.753Z,22.20
2018-06-20T09:03:57.455Z,22.00
2018-06-20T09:06:05.679Z,22.00
2018-06-20T09:08:14.548Z,22.40
2018-06-20T09:10:22.715Z,22.70
2018-06-20T09:12:30.822Z,22.40
2018-06-20T09:14:40.057Z,22.20
2018-06-20T09:16:48.335Z,22.10
2018-06-20T09:18:56.538Z,22.10
2018-06-20T09:20:59.360Z,22.20
2018-06-20T09:23:02.178Z,22.30
2018-06-20T09:25:10.120Z,22.10
2018-06-20T09:27:12.890Z,22.40
2018-06-20T09:29:16.278Z,22.20
2018-06-20T09:31:18.930Z,22.10
2018-06-20T09:33:26.926Z,22.40
2018-06-20T09:35:29.474Z,22.70
2018-06-20T09:37:35.115Z,22.50
2018-06-20T09:39:38.700Z,22.90
2018-06-20T09:41:42.460Z,22.80
2018-06-20T09:43:48.934Z,22.70
2018-06-20T09:45:55.674Z,23.10
2018-06-20T09:47:59.431Z,23.10
2018-06-20T09:50:07.968Z,23.30
2018-06-20T09:52:12.066Z,23.60
2018-06-20T09:54:15.661Z,23.80
2018-06-20T09:56:18.063Z,23.70
2018-06-20T09:58:21.826Z,23.70
2018-06-20T10:00:30.279Z,24.10
2018-06-20T10:02:38.415Z,23.90
2018-06-20T10:04:46.565Z,23.90
2018-06-20T10:06:54.840Z,23.80
2018-06-20T10:09:03.079Z,23.50
2018-06-20T10:11:11.316Z,23.50
2018-06-20T10:13:15.940Z,23.40
2018-06-20T10:15:19.614Z,23.50
2018-06-20T10:17:24.022Z,23.40
2018-06-20T10:19:27.749Z,23.30
2018-06-20T10:23:32.658Z,23.40
2018-06-20T10:25:36.303Z,23.40
2018-06-20T10:27:39.661Z,23.60
2018-06-20T10:29:42.073Z,23.70
2018-06-20T10:31:44.558Z,23.80
2018-06-20T10:33:47.120Z,23.70
2018-06-20T10:35:49.705Z,23.40
2018-06-20T10:37:55.071Z,23.60
2018-06-20T10:39:58.427Z,23.80
2018-06-20T10:42:01.641Z,23.70
2018-06-20T10:44:10.084Z,23.60
2018-06-20T10:48:25.741Z,24.20
2018-06-20T10:50:29.407Z,24.00
2018-06-20T10:52:32.026Z,23.90
2018-06-20T10:54:34.782Z,24.20
2018-06-20T10:56:43.124Z,23.70
2018-06-20T10:58:51.292Z,23.70
2018-06-20T11:01:01.776Z,24.00
2018-06-20T11:03:09.879Z,23.70
2018-06-20T11:05:18.660Z,23.50
2018-06-20T11:07:27.920Z,23.50
2018-06-20T11:09:35.923Z,23.50
2018-06-20T11:11:44.401Z,23.20
2018-06-20T11:13:48.972Z,23.30
2018-06-20T11:15:51.561Z,23.30
2018-06-20T11:17:54.145Z,23.60
2018-06-20T11:20:01.281Z,23.90
2018-06-20T11:22:05.758Z,23.90
2018-06-20T11:24:10.383Z,24.30
2018-06-20T11:26:14.600Z,24.40
2018-06-20T11:33:29.591Z,23.90
2018-06-20T11:35:33.452Z,23.80
2018-06-20T11:37:40.300Z,24.90
2018-06-20T11:39:43.050Z,24.60
2018-06-20T11:41:57.058Z,24.90
2018-06-20T11:44:06.238Z,24.90
2018-06-20T11:46:14.572Z,25.30
2018-06-20T11:48:18.136Z,25.00
2018-06-20T11:50:23.793Z,24.30
2018-06-20T11:53:34.821Z,24.10
2018-06-20T11:57:42.355Z,24.20
2018-06-20T11:59:50.400Z,24.60
2018-06-20T12:02:00.753Z,25.10
2018-06-20T12:04:09.324Z,25.50
2018-06-20T12:06:17.572Z,25.40
2018-06-20T12:08:27.350Z,25.90
2018-06-20T12:10:38.950Z,26.10
2018-06-20T12:12:47.159Z,25.40
2018-06-20T12:14:55.471Z,25.60
2018-06-20T12:17:02.495Z,25.80
2018-06-20T12:19:10.917Z,25.70
2018-06-20T12:21:19.106Z,25.90
2018-06-20T12:25:35.223Z,25.90
2018-06-20T12:27:43.501Z,25.70
2018-06-20T12:29:52.981Z,26.10
2018-06-20T12:32:02.199Z,26.30
2018-06-20T12:34:12.085Z,25.80
2018-06-20T12:36:23.530Z,25.60
2018-06-20T12:38:36.765Z,25.90
2018-06-20T12:40:47.721Z,26.00
2018-06-20T12:42:56.382Z,26.30
2018-06-20T12:45:08.400Z,27.50
2018-06-20T12:47:17.519Z,27.60
2018-06-20T12:49:25.535Z,26.70
2018-06-20T12:51:29.404Z,25.80
2018-06-20T12:53:34.719Z,25.80
2018-06-20T12:55:37.309Z,25.60
2018-06-20T12:57:42.591Z,25.50
2018-06-20T12:59:49.139Z,25.30
2018-06-20T13:01:59.580Z,25.70
2018-06-20T13:04:03.421Z,25.40
2018-06-20T13:06:07.256Z,25.30
2018-06-20T13:08:12.528Z,25.10
2018-06-20T13:10:15.044Z,24.70
2018-06-20T13:12:20.635Z,24.80
2018-06-20T13:14:23.482Z,25.20
2018-06-20T13:16:28.490Z,25.70
2018-06-20T13:18:33.410Z,26.60
2018-06-20T13:20:41.001Z,26.40
2018-06-20T13:22:49.359Z,26.80
2018-06-20T13:24:51.940Z,28.20
2018-06-20T13:26:56.525Z,27.80
2018-06-20T13:32:14.614Z,27.90
2018-06-20T13:34:23.874Z,28.00
2018-06-20T13:36:32.176Z,27.40
2018-06-20T13:38:42.117Z,28.50
2018-06-20T13:40:50.666Z,28.20
2018-06-20T13:43:02.332Z,27.20
2018-06-20T13:45:10.776Z,27.40
2018-06-20T13:47:21.397Z,28.60
2018-06-20T13:49:27.708Z,27.90
2018-06-20T13:51:30.215Z,27.30
2018-06-20T13:53:33.610Z,27.90
2018-06-20T13:55:39.019Z,28.50
2018-06-20T13:57:45.470Z,27.90
2018-06-20T13:59:48.800Z,26.90
2018-06-20T14:01:53.666Z,26.50
2018-06-20T14:03:56.142Z,27.60
2018-06-20T14:06:00.830Z,27.70
2018-06-20T14:08:07.330Z,28.00
2018-06-20T14:10:14.362Z,28.20
2018-06-20T14:12:19.576Z,27.00
2018-06-20T14:14:27.543Z,26.50
2018-06-20T14:16:33.052Z,26.50
2018-06-20T14:18:38.697Z,26.50
2018-06-20T14:20:49.632Z,27.10
2018-06-20T14:22:54.754Z,28.00
2018-06-20T14:25:00.774Z,27.70
2018-06-20T14:27:06.808Z,27.60
2018-06-20T14:29:14.104Z,26.60
2018-06-20T14:31:22.914Z,26.80
2018-06-20T14:33:31.742Z,25.90
2018-06-20T14:35:39.651Z,25.50
2018-06-20T14:37:47.970Z,25.40
2018-06-20T14:39:56.232Z,26.50
2018-06-20T14:42:05.514Z,27.00
2018-06-20T14:44:11.010Z,26.60
2018-06-20T14:46:15.520Z,26.30
2018-06-20T14:48:19.744Z,26.60
2018-06-20T14:50:23.162Z,26.50
2018-06-20T14:52:28.824Z,26.40
2018-06-20T14:54:31.210Z,26.20
2018-06-20T14:56:35.196Z,26.20
2018-06-20T14:58:38.036Z,26.40
2018-06-20T15:00:40.434Z,26.80
2018-06-20T15:02:43.061Z,26.60
2018-06-20T15:04:50.493Z,26.70
2018-06-20T15:06:55.114Z,26.70
2018-06-20T15:08:59.100Z,26.50
2018-06-20T15:11:01.509Z,26.40
2018-06-20T15:13:06.696Z,26.40
2018-06-20T15:15:09.570Z,26.30
2018-06-20T15:17:17.735Z,26.10
2018-06-20T15:19:20.221Z,26.00
2018-06-20T15:21:25.902Z,25.90
2018-06-20T15:23:31.103Z,26.10
2018-06-20T15:25:34.541Z,26.00
2018-06-20T15:27:42.920Z,26.00
2018-06-20T15:29:51.073Z,26.10
2018-06-20T15:31:59.017Z,26.10
2018-06-20T15:34:07.003Z,26.00
2018-06-20T15:36:15.288Z,26.10
2018-06-20T15:38:27.257Z,26.10
2018-06-20T15:40:30.178Z,26.30
2018-06-20T15:42:32.647Z,26.20
2018-06-20T15:44:36.891Z,26.30
2018-06-20T15:46:41.662Z,26.30
2018-06-20T15:48:44.986Z,26.10
2018-06-20T15:50:48.182Z,25.80
2018-06-20T15:52:52.289Z,25.60
2018-06-20T15:54:56.959Z,25.70
2018-06-20T15:56:59.551Z,25.90
2018-06-20T15:59:03.123Z,25.90
2018-06-20T16:01:07.566Z,25.70
2018-06-20T16:03:20.539Z,25.70
2018-06-20T16:05:23.398Z,25.60
2018-06-20T16:07:27.471Z,25.70
2018-06-20T16:09:35.711Z,25.80
2018-06-20T16:11:39.175Z,25.60
2018-06-20T16:13:41.606Z,25.50
2018-06-20T16:15:44.969Z,25.50
2018-06-20T16:17:47.673Z,25.50
2018-06-20T16:19:55.679Z,25.50
2018-06-20T16:22:03.655Z,25.60
2018-06-20T16:24:11.683Z,25.70
2018-06-20T16:26:22.419Z,25.70
2018-06-20T16:28:30.644Z,25.70
2018-06-20T16:30:35.961Z,25.40
2018-06-20T16:32:39.538Z,25.30
2018-06-20T16:34:43.320Z,25.30
2018-06-20T16:36:48.454Z,25.20
2018-06-20T16:38:51.364Z,25.20
2018-06-20T16:40:55.908Z,25.20
2018-06-20T16:42:59.075Z,25.20
2018-06-20T16:47:04.117Z,25.20
2018-06-20T16:49:07.651Z,25.30
2018-06-20T16:51:10.632Z,25.30
2018-06-20T16:53:13.301Z,25.30
2018-06-20T16:55:17.422Z,25.40
2018-06-20T16:57:21.450Z,25.30
2018-06-20T16:59:23.913Z,25.20
2018-06-20T17:01:32.467Z,25.30
2018-06-20T17:03:34.854Z,25.40
2018-06-20T17:05:38.756Z,25.20
2018-06-20T17:07:43.780Z,25.10
2018-06-20T17:09:47.120Z,25.10
2018-06-20T17:11:55.135Z,25.20
2018-06-20T17:14:03.925Z,25.10
2018-06-20T17:16:12.411Z,25.10
2018-06-20T17:18:20.371Z,25.00
2018-06-20T17:20:28.522Z,25.10
2018-06-20T17:22:36.768Z,25.10
2018-06-20T17:24:46.410Z,25.00
2018-06-20T17:26:49.091Z,25.10
2018-06-20T17:28:52.442Z,25.20
2018-06-20T17:30:55.463Z,25.20
2018-06-20T17:32:58.533Z,25.20
2018-06-20T17:35:00.926Z,25.20
2018-06-20T17:37:03.613Z,25.20
2018-06-20T17:39:09.753Z,25.10
2018-06-20T17:41:12.808Z,25.10
2018-06-20T17:43:15.542Z,25.00
2018-06-20T17:45:18.022Z,25.00
2018-06-20T17:47:21.927Z,25.10
2018-06-20T17:49:26.200Z,25.20
2018-06-20T17:53:31.474Z,25.00
2018-06-20T17:55:34.043Z,25.00
2018-06-20T17:57:36.574Z,25.10
2018-06-20T17:59:43.218Z,25.00
2018-06-20T18:01:47.902Z,24.90
2018-06-20T18:03:50.707Z,24.90
2018-06-20T18:05:58.759Z,24.90
2018-06-20T18:08:09.589Z,24.80
2018-06-20T18:10:17.713Z,24.80
2018-06-20T18:12:26.905Z,24.80
2018-06-20T18:14:34.842Z,24.70
2018-06-20T18:16:42.851Z,24.70
2018-06-20T18:18:45.803Z,24.70
2018-06-20T18:20:48.276Z,24.70
2018-06-20T18:22:51.050Z,24.70
2018-06-20T18:24:59.060Z,24.70
2018-06-20T18:27:04.592Z,24.70
2018-06-20T18:29:07.255Z,24.80
2018-06-20T18:31:11.538Z,24.70
2018-06-20T18:33:14.136Z,24.50
2018-06-20T18:35:17.103Z,24.40
2018-06-20T18:37:19.928Z,24.30
2018-06-20T18:39:22.309Z,24.20
2018-06-20T18:43:30.320Z,24.00
2018-06-20T18:47:41.048Z,23.90
2018-06-20T18:49:43.650Z,23.80
2018-06-20T18:51:46.272Z,23.70
2018-06-20T18:53:49.087Z,23.60
2018-06-20T18:55:55.330Z,23.60
2018-06-20T18:58:03.558Z,23.50
2018-06-20T19:00:13.283Z,23.40
2018-06-20T19:02:21.539Z,23.40
2018-06-20T19:04:29.718Z,23.40
2018-06-20T19:06:37.967Z,23.40
2018-06-20T19:08:48.058Z,23.30
2018-06-20T19:10:51.494Z,23.30
2018-06-20T19:12:55.813Z,23.10
2018-06-20T19:15:01.991Z,22.90
2018-06-20T19:17:04.453Z,22.80
2018-06-20T19:19:07.070Z,22.70
2018-06-20T19:21:09.622Z,22.60
2018-06-20T19:23:12.578Z,22.60
2018-06-20T19:25:15.103Z,22.40
2018-06-20T19:27:20.267Z,22.30
2018-06-20T19:29:23.068Z,22.40
2018-06-20T19:31:25.714Z,22.30
2018-06-20T19:33:32.235Z,22.30
2018-06-20T19:35:35.250Z,22.30
2018-06-20T19:37:40.315Z,22.30
2018-06-20T19:39:48.999Z,22.20
2018-06-20T19:41:52.203Z,22.10
2018-06-20T19:44:00.706Z,22.00
2018-06-20T19:46:02.996Z,22.00
2018-06-20T19:48:05.217Z,21.90
2018-06-20T19:50:07.409Z,21.80
2018-06-20T19:52:09.715Z,21.70
2018-06-20T19:54:11.990Z,21.70
2018-06-20T19:56:14.243Z,21.60
2018-06-20T19:58:16.606Z,21.50
2018-06-20T20:00:18.768Z,21.50
2018-06-20T20:02:21.061Z,21.50
2018-06-20T20:04:23.646Z,21.60
2018-06-20T20:06:26.058Z,21.50
2018-06-20T20:08:28.337Z,21.40
2018-06-20T20:10:30.663Z,21.30
2018-06-20T20:12:33.295Z,21.20
2018-06-20T20:14:35.607Z,21.10
2018-06-20T20:16:38.200Z,21.00
2018-06-20T20:18:40.363Z,21.10
2018-06-20T20:20:42.642Z,21.00
2018-06-20T20:22:44.809Z,20.90
2018-06-20T20:24:47.015Z,20.90
2018-06-20T20:26:49.183Z,20.90
2018-06-20T20:28:51.423Z,20.90
2018-06-20T20:30:53.570Z,20.90
2018-06-20T20:32:55.762Z,21.00
2018-06-20T20:34:58.098Z,20.90
2018-06-20T20:37:00.424Z,20.90
2018-06-20T20:39:03.346Z,20.80
2018-06-20T20:41:05.604Z,20.90
2018-06-20T20:43:07.786Z,20.90
2018-06-20T20:45:09.962Z,20.80
2018-06-20T20:49:14.403Z,20.60
2018-06-20T20:51:16.582Z,20.60
2018-06-20T20:53:18.757Z,20.70
2018-06-20T20:55:20.981Z,20.60
2018-06-20T20:57:23.143Z,20.50
2018-06-20T20:59:25.537Z,20.50
2018-06-20T21:03:36.742Z,20.30
2018-06-20T21:05:39.108Z,20.40
2018-06-20T21:07:41.286Z,20.30
2018-06-20T21:09:43.406Z,20.40
2018-06-20T21:11:45.557Z,20.40
2018-06-20T21:13:47.733Z,20.40
2018-06-20T21:15:50.002Z,20.20
2018-06-20T21:17:52.534Z,20.30
2018-06-20T21:19:54.672Z,20.20
2018-06-20T21:21:56.826Z,20.20
2018-06-20T21:23:59.189Z,20.30
2018-06-20T21:26:01.382Z,20.20
2018-06-20T21:28:03.610Z,20.30
2018-06-20T21:30:05.830Z,20.40
2018-06-20T21:32:08.037Z,20.30
2018-06-20T21:34:10.208Z,19.70
2018-06-20T21:36:12.434Z,19.50
2018-06-20T21:38:14.582Z,19.30
2018-06-20T21:40:16.718Z,19.30
2018-06-20T21:42:18.886Z,19.60
2018-06-20T21:44:21.021Z,19.90
2018-06-20T21:46:23.228Z,19.90
2018-06-20T21:48:25.380Z,19.40
2018-06-20T21:50:27.613Z,19.20
2018-06-20T21:52:29.835Z,19.00
2018-06-20T21:54:32.258Z,18.80
2018-06-20T21:56:34.398Z,18.70
2018-06-20T21:58:36.538Z,18.70
2018-06-20T22:00:38.645Z,18.70
2018-06-20T22:02:40.773Z,18.80
2018-06-20T22:04:42.853Z,18.80
2018-06-20T22:06:44.935Z,18.70
2018-06-20T22:08:47.015Z,18.80
2018-06-20T22:10:49.085Z,18.60
2018-06-20T22:12:51.154Z,18.60
2018-06-20T22:14:53.268Z,18.50
2018-06-20T22:16:55.329Z,18.70
2018-06-20T22:18:57.409Z,18.60
2018-06-20T22:20:59.485Z,18.60
2018-06-20T22:23:01.551Z,18.70
2018-06-20T22:25:03.754Z,18.60
2018-06-20T22:27:05.841Z,18.50
2018-06-20T22:29:08.011Z,18.40
2018-06-20T22:31:10.082Z,18.30
2018-06-20T22:33:12.198Z,18.30
2018-06-20T22:35:14.289Z,18.30
2018-06-20T22:37:16.354Z,18.20
2018-06-20T22:39:18.731Z,18.20
2018-06-20T22:41:20.824Z,18.20
2018-06-20T22:43:27.511Z,18.20
2018-06-20T22:45:29.724Z,18.20
2018-06-20T22:47:32.117Z,18.10
2018-06-20T22:49:34.198Z,18.10
2018-06-20T22:51:36.453Z,18.10
2018-06-20T22:53:38.509Z,18.00
2018-06-20T22:55:40.605Z,18.00
2018-06-20T22:57:42.878Z,18.00
2018-06-20T22:59:44.936Z,18.00
2018-06-20T23:01:47.010Z,17.90
2018-06-20T23:03:49.087Z,17.90
2018-06-20T23:05:51.150Z,17.90
2018-06-20T23:09:55.380Z,17.90
2018-06-20T23:11:57.454Z,17.80
2018-06-20T23:13:59.513Z,17.80
2018-06-20T23:16:01.861Z,17.80
2018-06-20T23:18:04.086Z,17.80
2018-06-20T23:20:06.181Z,17.70
2018-06-20T23:22:08.248Z,17.70
2018-06-20T23:26:12.438Z,17.70
2018-06-20T23:28:14.497Z,17.70
2018-06-20T23:30:16.574Z,17.70
2018-06-20T23:32:19.178Z,17.70
2018-06-20T23:34:21.238Z,17.70
2018-06-20T23:36:23.829Z,17.70
2018-06-20T23:38:25.921Z,17.70
2018-06-20T23:40:28.185Z,17.70
2018-06-20T23:42:30.353Z,17.60
2018-06-20T23:44:32.440Z,17.60
2018-06-20T23:46:34.650Z,17.60
2018-06-20T23:48:36.729Z,17.50
2018-06-20T23:50:38.801Z,17.50
2018-06-20T23:52:40.921Z,17.60
2018-06-20T23:54:43.005Z,17.50
2018-06-20T23:56:45.070Z,17.50
2018-06-20T23:58:47.134Z,17.50
